createdAt,value
2023-01-04T00:01:39.893Z,102023.72
2023-01-04T00:04:09.652Z,102011.41
2023-01-04T00:06:36.828Z,102012.34
2023-01-04T00:09:05.319Z,102010.31
2023-01-04T00:11:33.731Z,102004.47
2023-01-04T00:14:02.101Z,102004.13
2023-01-04T00:16:30.788Z,101999.50
2023-01-04T00:18:59.040Z,101995.94
2023-01-04T00:21:31.305Z,101985.44
2023-01-04T00:24:01.993Z,101989.03
2023-01-04T00:26:35.185Z,101978.69
2023-01-04T00:29:09.962Z,101981.19
2023-01-04T00:31:41.057Z,101971.44
2023-01-04T00:34:16.827Z,101968.69
2023-01-04T00:36:48.026Z,101963.94
2023-01-04T00:39:18.484Z,101961.19
2023-01-04T00:41:59.310Z,101945.00
2023-01-04T00:44:32.516Z,101935.13
2023-01-04T00:47:04.386Z,101937.63
2023-01-04T00:49:34.557Z,101934.41
2023-01-04T00:52:04.802Z,101930.00
2023-01-04T00:54:34.831Z,101928.34
2023-01-04T00:57:05.514Z,101921.06
2023-01-04T00:59:33.329Z,101908.44
2023-01-04T01:02:01.793Z,101907.84
2023-01-04T01:04:30.279Z,101889.13
2023-01-04T01:06:58.592Z,101893.66
2023-01-04T01:09:27.207Z,101885.94
2023-01-04T01:11:55.605Z,101882.22
2023-01-04T01:14:26.352Z,101890.06
2023-01-04T01:16:57.670Z,101893.31
2023-01-04T01:19:30.293Z,101888.06
2023-01-04T01:22:00.554Z,101896.66
2023-01-04T01:24:30.585Z,101889.03
2023-01-04T01:27:00.609Z,101894.88
2023-01-04T01:29:30.821Z,101886.78
2023-01-04T01:32:00.912Z,101896.19
2023-01-04T01:34:31.153Z,101893.09
2023-01-04T01:37:02.792Z,101898.22
2023-01-04T01:39:32.789Z,101891.50
2023-01-04T01:42:02.874Z,101883.56
2023-01-04T01:44:42.026Z,101886.06
2023-01-04T01:47:28.233Z,101890.34
2023-01-04T01:49:58.401Z,101893.19
2023-01-04T01:52:38.996Z,101884.88
2023-01-04T01:55:13.175Z,101872.84
2023-01-04T01:57:50.641Z,101884.16
2023-01-04T02:00:21.062Z,101881.78
2023-01-04T02:03:27.195Z,101869.19
2023-01-04T02:06:04.104Z,101877.13
2023-01-04T02:08:33.092Z,101874.53
2023-01-04T02:11:01.173Z,101873.69
2023-01-04T02:13:54.967Z,101859.06
2023-01-04T02:16:59.833Z,101858.44
2023-01-04T02:20:10.458Z,101838.59
2023-01-04T02:23:00.779Z,101820.75
2023-01-04T02:26:17.660Z,101808.06
2023-01-04T02:29:05.281Z,101802.44
2023-01-04T02:32:05.873Z,101787.19
2023-01-04T02:35:21.883Z,101788.78
2023-01-04T02:39:00.343Z,101767.56
2023-01-04T02:41:39.456Z,101761.47
2023-01-04T02:44:54.644Z,101765.81
2023-01-04T02:48:01.684Z,101749.28
2023-01-04T02:51:00.056Z,101741.41
2023-01-04T02:53:40.198Z,101746.72
2023-01-04T02:56:38.570Z,101739.19
2023-01-04T02:59:40.996Z,101745.28
2023-01-04T03:03:05.186Z,101739.69
2023-01-04T03:06:16.035Z,101740.00
2023-01-04T03:09:19.323Z,101729.22
2023-01-04T03:12:23.141Z,101724.72
2023-01-04T03:15:28.512Z,101720.91
2023-01-04T03:18:16.548Z,101720.38
2023-01-04T03:20:52.500Z,101707.59
2023-01-04T03:23:50.706Z,101699.75
2023-01-04T03:26:52.358Z,101699.84
2023-01-04T03:29:55.451Z,101697.63
2023-01-04T03:33:18.213Z,101686.25
2023-01-04T03:36:20.156Z,101672.81
2023-01-04T03:39:50.839Z,101674.59
2023-01-04T03:43:22.484Z,101657.63
2023-01-04T03:46:28.178Z,101648.72
2023-01-04T03:49:29.981Z,101646.34
2023-01-04T03:52:07.828Z,101634.72
2023-01-04T03:54:46.950Z,101630.88
2023-01-04T03:57:18.892Z,101631.72
2023-01-04T04:00:11.869Z,101628.16
2023-01-04T04:02:46.417Z,101627.56
2023-01-04T04:05:43.079Z,101608.72
2023-01-04T04:08:31.494Z,101614.78
2023-01-04T04:11:22.599Z,101616.75
2023-01-04T04:13:51.473Z,101610.06
2023-01-04T04:16:19.198Z,101607.78
2023-01-04T04:18:48.613Z,101598.16
2023-01-04T04:21:15.977Z,101590.94
2023-01-04T04:23:44.683Z,101582.66
2023-01-04T04:26:12.928Z,101572.53
2023-01-04T04:28:42.678Z,101576.91
2023-01-04T04:31:13.896Z,101570.72
2023-01-04T04:33:41.100Z,101561.34
2023-01-04T04:36:10.513Z,101556.44
2023-01-04T04:38:38.219Z,101556.44
2023-01-04T04:41:32.234Z,101548.91
2023-01-04T04:44:02.498Z,101539.72
2023-01-04T04:46:32.591Z,101540.38
2023-01-04T04:49:04.107Z,101528.97
2023-01-04T04:51:35.128Z,101528.69
2023-01-04T04:54:07.958Z,101515.09
2023-01-04T04:56:37.946Z,101513.97
2023-01-04T04:59:06.239Z,101499.75
2023-01-04T05:01:34.930Z,101492.31
2023-01-04T05:04:05.399Z,101485.06
2023-01-04T05:06:33.644Z,101477.28
2023-01-04T05:09:01.706Z,101463.41
2023-01-04T05:11:48.675Z,101463.09
2023-01-04T05:14:18.705Z,101466.88
2023-01-04T05:16:48.759Z,101449.59
2023-01-04T05:19:19.062Z,101442.50
2023-01-04T05:21:49.061Z,101439.38
2023-01-04T05:24:19.099Z,101439.50
2023-01-04T05:26:49.164Z,101425.06
2023-01-04T05:29:37.893Z,101425.09
2023-01-04T05:32:08.016Z,101413.78
2023-01-04T05:34:38.123Z,101399.00
2023-01-04T05:37:08.172Z,101393.81
2023-01-04T05:39:38.213Z,101383.06
2023-01-04T05:42:26.762Z,101372.16
2023-01-04T05:44:59.819Z,101358.66
2023-01-04T05:47:30.204Z,101365.47
2023-01-04T05:50:00.847Z,101350.81
2023-01-04T05:52:31.385Z,101349.63
2023-01-04T05:55:01.805Z,101348.56
2023-01-04T05:57:31.913Z,101345.56
2023-01-04T06:00:02.794Z,101335.59
2023-01-04T06:02:33.496Z,101332.81
2023-01-04T06:05:05.281Z,101327.19
2023-01-04T06:07:35.297Z,101332.75
2023-01-04T06:10:04.190Z,101326.09
2023-01-04T06:12:32.222Z,101321.94
2023-01-04T06:15:00.728Z,101319.38
2023-01-04T06:17:29.384Z,101314.84
2023-01-04T06:19:58.001Z,101306.84
2023-01-04T06:22:29.202Z,101303.09
2023-01-04T06:24:58.209Z,101302.25
2023-01-04T06:27:26.861Z,101288.50
2023-01-04T06:29:55.172Z,101289.84
2023-01-04T06:32:23.554Z,101285.22
2023-01-04T06:34:52.015Z,101273.47
2023-01-04T06:37:20.395Z,101264.41
2023-01-04T06:39:48.875Z,101255.06
2023-01-04T06:42:36.066Z,101263.34
2023-01-04T06:45:07.024Z,101261.97
2023-01-04T06:47:37.126Z,101245.84
2023-01-04T06:50:08.026Z,101243.38
2023-01-04T06:52:38.097Z,101231.84
2023-01-04T06:55:11.630Z,101232.09
2023-01-04T06:57:41.683Z,101226.09
2023-01-04T07:00:11.435Z,101222.50
2023-01-04T07:02:39.135Z,101230.19
2023-01-04T07:05:27.222Z,101230.78
2023-01-04T07:07:55.460Z,101223.06
2023-01-04T07:10:23.813Z,101220.88
2023-01-04T07:12:52.356Z,101204.34
2023-01-04T07:15:37.344Z,101212.31
2023-01-04T07:18:11.518Z,101196.34
2023-01-04T07:20:41.541Z,101196.88
2023-01-04T07:23:11.666Z,101203.50
2023-01-04T07:25:41.703Z,101184.22
2023-01-04T07:28:11.815Z,101180.09
2023-01-04T07:30:41.881Z,101179.56
2023-01-04T07:33:11.917Z,101179.28
2023-01-04T07:35:41.889Z,101176.84
2023-01-04T07:38:11.918Z,101172.44
2023-01-04T07:40:56.468Z,101166.66
2023-01-04T07:43:28.535Z,101169.13
2023-01-04T07:45:59.038Z,101158.94
2023-01-04T07:48:29.721Z,101156.19
2023-01-04T07:50:59.861Z,101149.06
2023-01-04T07:53:29.881Z,101141.34
2023-01-04T07:56:01.131Z,101141.66
2023-01-04T07:58:35.575Z,101137.50
2023-01-04T08:01:19.636Z,101129.25
2023-01-04T08:03:48.214Z,101124.84
2023-01-04T08:06:19.027Z,101115.47
2023-01-04T08:08:48.363Z,101109.44
2023-01-04T08:11:22.565Z,101102.53
2023-01-04T08:13:50.043Z,101093.75
2023-01-04T08:16:23.555Z,101088.53
2023-01-04T08:19:02.579Z,101081.38
2023-01-04T08:21:36.509Z,101065.91
2023-01-04T08:24:08.027Z,101074.47
2023-01-04T08:26:38.223Z,101060.41
2023-01-04T08:29:08.506Z,101059.84
2023-01-04T08:31:36.808Z,101063.44
2023-01-04T08:34:09.776Z,101059.03
2023-01-04T08:36:53.460Z,101075.56
2023-01-04T08:39:21.895Z,101070.00
2023-01-04T08:44:41.085Z,101048.53
2023-01-04T08:47:11.055Z,101044.16
2023-01-04T08:49:40.967Z,101034.50
2023-01-04T08:52:11.849Z,101033.97
2023-01-04T08:54:42.435Z,101041.31
2023-01-04T08:57:11.651Z,101043.31
2023-01-04T08:59:41.596Z,101039.72
2023-01-04T09:02:26.595Z,101036.44
2023-01-04T09:05:00.165Z,101036.97
2023-01-04T09:07:32.632Z,101034.25
2023-01-04T09:10:02.279Z,101042.47
2023-01-04T09:12:31.935Z,101026.97
2023-01-04T09:15:03.012Z,101028.94
2023-01-04T09:17:31.720Z,101035.03
2023-01-04T09:20:01.538Z,101030.84
2023-01-04T09:22:32.146Z,101019.06
2023-01-04T09:25:02.913Z,101020.97
2023-01-04T09:27:34.011Z,101015.50
2023-01-04T09:30:04.553Z,101004.13
2023-01-04T09:32:32.694Z,101013.44
2023-01-04T09:35:02.598Z,101003.00
2023-01-04T09:37:32.359Z,101003.81
2023-01-04T09:40:02.283Z,100989.19
2023-01-04T09:42:44.900Z,100977.09
2023-01-04T09:45:26.729Z,100985.97
2023-01-04T09:48:21.454Z,100978.25
2023-01-04T09:51:06.313Z,100973.00
2023-01-04T09:54:16.815Z,100965.84
2023-01-04T09:56:59.364Z,100959.38
2023-01-04T09:59:34.728Z,100953.91
2023-01-04T10:02:23.757Z,100950.00
2023-01-04T10:04:54.299Z,100940.38
2023-01-04T10:07:34.893Z,100933.16
2023-01-04T10:10:13.211Z,100924.81
2023-01-04T10:13:13.490Z,100923.69
2023-01-04T10:16:36.574Z,100918.38
2023-01-04T10:23:11.179Z,100901.81
2023-01-04T10:26:11.778Z,100896.56
2023-01-04T10:29:09.297Z,100887.41
2023-01-04T10:31:56.120Z,100866.25
2023-01-04T10:34:40.386Z,100877.56
2023-01-04T10:37:34.969Z,100872.75
2023-01-04T10:40:17.479Z,100861.66
2023-01-04T10:43:07.256Z,100859.78
2023-01-04T10:46:15.406Z,100854.44
2023-01-04T10:49:41.855Z,100837.91
2023-01-04T10:52:38.280Z,100830.31
2023-01-04T10:55:27.664Z,100827.44
2023-01-04T10:58:17.655Z,100827.13
2023-01-04T11:01:10.514Z,100812.72
2023-01-04T11:09:05.247Z,100797.91
2023-01-04T11:11:46.193Z,100780.84
2023-01-04T11:14:16.188Z,100784.69
2023-01-04T11:16:51.779Z,100794.97
2023-01-04T11:19:22.490Z,100787.22
2023-01-04T11:22:09.360Z,100780.63
2023-01-04T11:25:07.818Z,100767.34
2023-01-04T11:28:00.128Z,100767.03
2023-01-04T11:30:52.205Z,100765.47
2023-01-04T11:33:25.566Z,100772.84
2023-01-04T11:35:59.393Z,100755.25
2023-01-04T11:38:31.178Z,100765.69
2023-01-04T11:41:18.120Z,100761.59
2023-01-04T11:44:01.312Z,100754.84
2023-01-04T11:46:34.831Z,100755.19
2023-01-04T11:49:05.858Z,100750.56
2023-01-04T11:51:40.907Z,100744.00
2023-01-04T11:54:20.996Z,100740.34
2023-01-04T11:57:18.906Z,100731.94
2023-01-04T12:00:16.209Z,100724.84
2023-01-04T12:03:02.543Z,100724.66
2023-01-04T12:05:32.876Z,100719.31
2023-01-04T12:08:00.263Z,100716.28
2023-01-04T12:10:29.456Z,100706.91
2023-01-04T12:13:02.422Z,100708.75
2023-01-04T12:16:10.815Z,100703.47
2023-01-04T12:18:45.104Z,100686.53
2023-01-04T12:21:25.667Z,100688.16
2023-01-04T12:23:56.605Z,100686.56
2023-01-04T12:26:27.393Z,100681.56
2023-01-04T12:29:24.944Z,100678.78
2023-01-04T12:32:17.609Z,100672.13
2023-01-04T12:34:48.724Z,100670.81
2023-01-04T12:37:46.216Z,100672.63
2023-01-04T12:40:45.118Z,100672.16
2023-01-04T12:43:16.325Z,100662.72
2023-01-04T12:46:08.388Z,100649.75
2023-01-04T12:48:57.272Z,100647.56
2023-01-04T12:51:33.017Z,100645.44
2023-01-04T12:54:06.174Z,100638.78
2023-01-04T12:57:17.747Z,100643.88
2023-01-04T13:00:13.931Z,100629.44
2023-01-04T13:03:15.015Z,100632.56
2023-01-04T13:06:06.098Z,100635.50
2023-01-04T13:08:45.613Z,100623.63
2023-01-04T13:12:14.911Z,100627.31
2023-01-04T13:14:57.883Z,100620.03
2023-01-04T13:17:28.996Z,100616.69
2023-01-04T13:19:59.390Z,100607.22
2023-01-04T13:22:34.019Z,100613.63
2023-01-04T13:25:14.785Z,100606.19
2023-01-04T13:28:05.373Z,100599.34
2023-01-04T13:30:39.640Z,100605.56
2023-01-04T13:33:27.281Z,100591.69
2023-01-04T13:36:12.212Z,100589.44
2023-01-04T13:38:45.584Z,100580.56
2023-01-04T13:41:32.108Z,100578.41
2023-01-04T13:48:06.375Z,100572.31
2023-01-04T13:50:47.443Z,100557.78
2023-01-04T13:53:31.100Z,100550.66
2023-01-04T13:56:04.717Z,100550.22
2023-01-04T13:58:35.523Z,100559.22
2023-01-04T14:01:31.784Z,100568.13
2023-01-04T14:04:13.450Z,100560.25
2023-01-04T14:06:55.220Z,100549.53
2023-01-04T14:09:43.426Z,100553.19
2023-01-04T14:12:27.270Z,100553.81
2023-01-04T14:15:17.270Z,100548.59
2023-01-04T14:17:53.932Z,100549.81
2023-01-04T14:20:25.175Z,100550.53
2023-01-04T14:22:58.949Z,100536.03
2023-01-04T14:25:38.451Z,100548.16
2023-01-04T14:28:41.631Z,100546.16
2023-01-04T14:31:25.310Z,100539.31
2023-01-04T14:33:56.737Z,100542.06
2023-01-04T14:36:33.051Z,100537.66
2023-01-04T14:39:09.666Z,100534.38
2023-01-04T14:41:54.939Z,100525.59
2023-01-04T14:44:30.991Z,100529.06
2023-01-04T14:47:06.297Z,100525.28
2023-01-04T14:49:36.569Z,100524.47
2023-01-04T14:52:23.835Z,100514.44
2023-01-04T14:54:53.904Z,100510.25
2023-01-04T14:57:24.101Z,100506.28
2023-01-04T14:59:54.094Z,100493.19
2023-01-04T15:02:26.957Z,100508.53
2023-01-04T15:04:57.329Z,100495.31
2023-01-04T15:07:40.558Z,100495.03
2023-01-04T15:10:28.690Z,100495.63
2023-01-04T15:13:00.823Z,100500.53
2023-01-04T15:15:35.629Z,100493.16
2023-01-04T15:18:05.977Z,100483.34
2023-01-04T15:20:40.989Z,100473.31
2023-01-04T15:23:11.429Z,100482.09
2023-01-04T15:25:42.162Z,100472.09
2023-01-04T15:28:10.072Z,100470.66
2023-01-04T15:30:43.752Z,100474.00
2023-01-04T15:33:13.977Z,100482.47
2023-01-04T15:35:44.061Z,100471.88
2023-01-04T15:38:18.396Z,100484.53
2023-01-04T15:40:50.232Z,100471.50
2023-01-04T15:43:20.412Z,100465.44
2023-01-04T15:45:50.435Z,100455.13
2023-01-04T15:48:20.676Z,100468.44
2023-01-04T15:50:50.792Z,100460.34
2023-01-04T15:53:20.928Z,100455.75
2023-01-04T15:55:52.491Z,100452.06
2023-01-04T15:58:22.576Z,100447.34
2023-01-04T16:00:59.653Z,100445.34
2023-01-04T16:03:36.350Z,100446.72
2023-01-04T16:06:16.647Z,100441.31
2023-01-04T16:08:47.223Z,100427.72
2023-01-04T16:11:23.605Z,100428.78
2023-01-04T16:13:54.271Z,100426.63
2023-01-04T16:16:29.719Z,100422.09
2023-01-04T16:18:59.839Z,100416.00
2023-01-04T16:21:29.562Z,100417.53
2023-01-04T16:24:09.180Z,100402.25
2023-01-04T16:26:43.177Z,100398.69
2023-01-04T16:29:13.337Z,100404.63
2023-01-04T16:31:45.445Z,100400.25
2023-01-04T16:34:15.874Z,100388.53
2023-01-04T16:36:45.932Z,100398.59
2023-01-04T16:39:17.022Z,100391.50
2023-01-04T16:41:47.283Z,100383.34
2023-01-04T16:44:17.350Z,100387.47
2023-01-04T16:46:47.474Z,100369.13
2023-01-04T16:49:18.470Z,100371.88
2023-01-04T16:51:49.169Z,100371.88
2023-01-04T16:54:19.625Z,100363.81
2023-01-04T16:56:50.209Z,100357.78
2023-01-04T16:59:21.379Z,100357.31
2023-01-04T17:01:57.352Z,100351.09
2023-01-04T17:04:28.220Z,100344.47
2023-01-04T17:06:58.510Z,100350.34
2023-01-04T17:09:28.505Z,100338.47
2023-01-04T17:15:14.990Z,100332.97
2023-01-04T17:17:39.752Z,100332.00
2023-01-04T17:20:08.957Z,100337.72
2023-01-04T17:22:36.683Z,100347.34
2023-01-04T17:25:05.804Z,100335.13
2023-01-04T17:27:35.547Z,100337.50
2023-01-04T17:30:06.691Z,100316.34
2023-01-04T17:32:36.881Z,100322.88
2023-01-04T17:35:07.344Z,100306.91
2023-01-04T17:37:37.452Z,100297.66
2023-01-04T17:40:08.219Z,100279.13
2023-01-04T17:42:38.213Z,100291.34
2023-01-04T17:45:08.914Z,100304.81
2023-01-04T17:47:38.998Z,100302.09
2023-01-04T17:50:09.536Z,100296.06
2023-01-04T17:52:39.594Z,100284.97
2023-01-04T17:55:10.439Z,100286.13
2023-01-04T18:00:15.361Z,100289.41
2023-01-04T18:02:45.480Z,100287.19
2023-01-04T18:05:13.892Z,100291.72
2023-01-04T18:07:42.409Z,100284.41
2023-01-04T18:10:20.589Z,100272.03
2023-01-04T18:12:51.281Z,100271.25
2023-01-04T18:15:21.227Z,100276.78
2023-01-04T18:17:51.041Z,100278.25
2023-01-04T18:20:24.891Z,100286.06
2023-01-04T18:22:55.421Z,100296.75
2023-01-04T18:25:25.496Z,100291.88
2023-01-04T18:27:53.840Z,100274.28
2023-01-04T18:30:22.064Z,100279.53
2023-01-04T18:32:50.661Z,100279.19
2023-01-04T18:35:18.872Z,100272.84
2023-01-04T18:37:47.417Z,100266.69
2023-01-04T18:40:15.858Z,100274.16
2023-01-04T18:42:51.423Z,100274.31
2023-01-04T18:45:21.490Z,100271.56
2023-01-04T18:47:52.250Z,100266.50
2023-01-04T18:50:22.401Z,100263.06
2023-01-04T18:52:52.029Z,100274.81
2023-01-04T18:55:21.957Z,100253.97
2023-01-04T18:57:51.743Z,100247.13
2023-01-04T19:00:23.035Z,100262.44
2023-01-04T19:02:53.132Z,100255.25
2023-01-04T19:05:24.514Z,100244.84
2023-01-04T19:07:55.440Z,100241.09
2023-01-04T19:10:25.547Z,100235.88
2023-01-04T19:12:55.311Z,100245.03
2023-01-04T19:15:25.822Z,100246.78
2023-01-04T19:17:57.172Z,100252.47
2023-01-04T19:20:27.379Z,100240.41
2023-01-04T19:22:57.187Z,100225.16
2023-01-04T19:25:28.618Z,100229.88
2023-01-04T19:27:58.798Z,100242.25
2023-01-04T19:30:29.116Z,100243.88
2023-01-04T19:32:59.199Z,100236.88
2023-01-04T19:35:29.015Z,100233.78
2023-01-04T19:37:59.345Z,100219.91
2023-01-04T19:40:29.462Z,100227.75
2023-01-04T19:42:59.281Z,100212.94
2023-01-04T19:45:29.051Z,100211.81
2023-01-04T19:48:00.528Z,100220.91
2023-01-04T19:50:30.284Z,100206.41
2023-01-04T19:52:58.680Z,100205.44
2023-01-04T19:55:29.741Z,100201.50
2023-01-04T19:58:00.279Z,100202.19
2023-01-04T20:00:30.343Z,100202.78
2023-01-04T20:03:00.739Z,100204.59
2023-01-04T20:05:30.920Z,100201.97
2023-01-04T20:08:01.010Z,100183.91
2023-01-04T20:10:31.019Z,100205.56
2023-01-04T20:13:01.111Z,100200.66
2023-01-04T20:15:31.187Z,100202.44
2023-01-04T20:18:01.280Z,100183.75
2023-01-04T20:20:31.384Z,100178.69
2023-01-04T20:23:01.467Z,100176.88
2023-01-04T20:25:31.644Z,100186.66
2023-01-04T20:27:59.969Z,100187.50
2023-01-04T20:30:28.362Z,100183.25
2023-01-04T20:32:56.749Z,100181.13
2023-01-04T20:35:25.292Z,100186.03
2023-01-04T20:37:59.607Z,100182.78
2023-01-04T20:40:29.655Z,100183.13
2023-01-04T20:43:18.500Z,100177.72
2023-01-04T20:45:49.645Z,100186.88
2023-01-04T20:48:19.829Z,100185.41
2023-01-04T20:50:49.823Z,100175.94
2023-01-04T20:53:20.304Z,100174.66
2023-01-04T20:55:48.411Z,100178.59
2023-01-04T20:58:17.643Z,100178.25
2023-01-04T21:00:47.731Z,100182.00
2023-01-04T21:03:16.934Z,100178.59
2023-01-04T21:05:45.547Z,100179.56
2023-01-04T21:08:13.888Z,100173.19
2023-01-04T21:10:44.073Z,100184.28
2023-01-04T21:13:14.122Z,100180.06
2023-01-04T21:15:44.433Z,100175.00
2023-01-04T21:18:14.664Z,100169.63
2023-01-04T21:20:45.708Z,100167.66
2023-01-04T21:23:22.627Z,100171.75
2023-01-04T21:25:53.298Z,100167.00
2023-01-04T21:28:23.379Z,100157.19
2023-01-04T21:30:53.434Z,100150.56
2023-01-04T21:33:24.989Z,100139.41
2023-01-04T21:35:55.049Z,100133.22
2023-01-04T21:38:25.097Z,100134.88
2023-01-04T21:40:53.587Z,100135.72
2023-01-04T21:43:21.918Z,100130.34
2023-01-04T21:45:50.362Z,100128.22
2023-01-04T21:48:18.794Z,100134.03
2023-01-04T21:50:47.194Z,100146.13
2023-01-04T21:53:15.589Z,100144.63
2023-01-04T21:55:44.024Z,100163.25
2023-01-04T21:58:12.557Z,100176.28
2023-01-04T22:00:40.871Z,100172.84
2023-01-04T22:03:11.002Z,100170.78
2023-01-04T22:05:40.680Z,100165.09
2023-01-04T22:08:09.253Z,100159.22
2023-01-04T22:10:37.631Z,100136.63
2023-01-04T22:13:06.329Z,100149.78
2023-01-04T22:15:41.446Z,100124.69
2023-01-04T22:18:11.522Z,100129.44
2023-01-04T22:20:41.560Z,100127.00
2023-01-04T22:23:12.651Z,100127.50
2023-01-04T22:25:42.743Z,100138.38
2023-01-04T22:28:14.569Z,100144.06
2023-01-04T22:30:44.575Z,100140.81
2023-01-04T22:33:14.550Z,100136.56
2023-01-04T22:35:44.595Z,100138.88
2023-01-04T22:38:14.930Z,100138.03
2023-01-04T22:40:45.096Z,100138.06
2023-01-04T22:43:15.157Z,100143.91
2023-01-04T22:45:46.107Z,100159.53
2023-01-04T22:48:16.144Z,100156.28
2023-01-04T22:50:46.150Z,100136.75
2023-01-04T22:53:16.213Z,100135.28
2023-01-04T22:56:17.631Z,100148.00
2023-01-04T22:58:37.943Z,100131.72
2023-01-04T23:01:09.486Z,100124.53
2023-01-04T23:03:43.414Z,100134.47
2023-01-04T23:06:14.251Z,100149.97
2023-01-04T23:08:44.970Z,100146.97
2023-01-04T23:11:18.944Z,100144.38
2023-01-04T23:13:49.649Z,100153.47
2023-01-04T23:16:24.780Z,100146.03
2023-01-04T23:18:58.088Z,100136.41
2023-01-04T23:21:29.358Z,100142.63
2023-01-04T23:24:00.415Z,100137.22
2023-01-04T23:26:32.864Z,100135.63
2023-01-04T23:29:03.735Z,100146.03
2023-01-04T23:31:34.818Z,100141.00
2023-01-04T23:34:06.505Z,100128.13
2023-01-04T23:36:39.971Z,100134.31
2023-01-04T23:39:17.109Z,100125.84
2023-01-04T23:41:45.560Z,100119.16
2023-01-04T23:44:26.093Z,100147.19
2023-01-04T23:47:06.606Z,100136.91
2023-01-04T23:49:39.328Z,100137.25
2023-01-04T23:52:09.415Z,100141.13
2023-01-04T23:54:40.663Z,100142.59
2023-01-04T23:57:10.698Z,100136.25
2023-01-04T23:59:40.751Z,100149.47
